createdAt,value
2018-10-11T00:00:38.082Z,94.30
2018-10-11T00:03:08.040Z,94.30
2018-10-11T00:05:37.857Z,94.00
2018-10-11T00:08:07.842Z,94.00
2018-10-11T00:10:37.566Z,94.00
2018-10-11T00:13:07.152Z,93.80
2018-10-11T00:15:36.779Z,94.10
2018-10-11T00:18:06.418Z,94.00
2018-10-11T00:20:36.050Z,94.10
2018-10-11T00:23:05.633Z,94.10
2018-10-11T00:25:35.330Z,94.20
2018-10-11T00:28:04.875Z,94.20
2018-10-11T00:30:34.443Z,94.10
2018-10-11T00:33:04.065Z,94.10
2018-10-11T00:35:33.645Z,94.30
2018-10-11T00:38:03.286Z,94.40
2018-10-11T00:40:32.848Z,94.30
2018-10-11T00:43:02.444Z,94.30
2018-10-11T00:45:32.037Z,94.30
2018-10-11T00:48:01.681Z,94.20
2018-10-11T00:50:31.293Z,94.00
2018-10-11T00:53:00.836Z,94.00
2018-10-11T00:55:30.502Z,93.90
2018-10-11T00:58:00.121Z,94.00
2018-10-11T01:00:29.662Z,94.00
2018-10-11T01:02:59.286Z,94.10
2018-10-11T01:05:28.802Z,94.00
2018-10-11T01:07:58.391Z,93.90
2018-10-11T01:10:28.028Z,93.90
2018-10-11T01:12:57.666Z,94.10
2018-10-11T01:15:27.204Z,94.20
2018-10-11T01:17:56.819Z,94.00
2018-10-11T01:20:26.491Z,94.10
2018-10-11T01:22:56.269Z,94.20
2018-10-11T01:25:25.846Z,94.30
2018-10-11T01:27:55.623Z,94.40
2018-10-11T01:30:25.721Z,94.50
2018-10-11T01:32:55.307Z,94.40
2018-10-11T01:35:25.187Z,94.30
2018-10-11T01:37:55.177Z,94.30
2018-10-11T01:40:25.148Z,94.10
2018-10-11T01:43:05.863Z,94.30
2018-10-11T01:45:36.020Z,94.40
2018-10-11T01:48:05.595Z,94.20
2018-10-11T01:50:35.228Z,94.20
2018-10-11T01:53:06.154Z,94.10
2018-10-11T01:55:35.715Z,94.20
2018-10-11T01:58:05.343Z,94.30
2018-10-11T02:00:34.889Z,94.10
2018-10-11T02:03:04.488Z,93.80
2018-10-11T02:05:34.083Z,93.80
2018-10-11T02:08:03.691Z,93.80
2018-10-11T02:10:33.312Z,94.10
2018-10-11T02:13:02.921Z,94.30
2018-10-11T02:15:32.542Z,93.80
2018-10-11T02:18:02.137Z,94.10
2018-10-11T02:20:31.736Z,94.40
2018-10-11T02:23:01.343Z,94.20
2018-10-11T02:25:30.966Z,94.40
2018-10-11T02:28:00.566Z,94.50
2018-10-11T02:30:30.195Z,94.40
2018-10-11T02:32:59.864Z,94.40
2018-10-11T02:35:29.460Z,94.40
2018-10-11T02:37:58.990Z,94.60
2018-10-11T02:40:28.538Z,94.80
2018-10-11T02:42:58.185Z,94.70
2018-10-11T02:45:27.716Z,94.80
2018-10-11T02:47:57.350Z,94.70
2018-10-11T02:50:26.949Z,94.90
2018-10-11T02:52:56.508Z,94.90
2018-10-11T02:55:27.757Z,94.80
2018-10-11T02:58:08.256Z,94.90
2018-10-11T03:00:38.097Z,94.90
2018-10-11T03:03:11.649Z,94.90
2018-10-11T03:05:43.302Z,95.20
2018-10-11T03:08:19.696Z,95.30
2018-10-11T03:10:50.036Z,95.50
2018-10-11T03:13:19.705Z,95.40
2018-10-11T03:15:49.414Z,95.30
2018-10-11T03:18:19.065Z,95.20
2018-10-11T03:20:48.646Z,95.10
2018-10-11T03:23:18.298Z,95.20
2018-10-11T03:25:47.873Z,95.20
2018-10-11T03:28:18.433Z,95.20
2018-10-11T03:30:48.014Z,95.20
2018-10-11T03:33:17.599Z,95.30
2018-10-11T03:35:47.228Z,95.40
2018-10-11T03:38:16.831Z,95.50
2018-10-11T03:40:46.411Z,95.60
2018-10-11T03:43:15.994Z,95.60
2018-10-11T03:45:45.677Z,95.50
2018-10-11T03:48:15.318Z,95.60
2018-10-11T03:50:44.922Z,95.80
2018-10-11T03:53:14.556Z,95.80
2018-10-11T03:55:44.175Z,95.80
2018-10-11T03:58:13.744Z,95.80
2018-10-11T04:00:43.596Z,95.90
2018-10-11T04:03:13.190Z,95.90
2018-10-11T04:05:42.773Z,96.00
2018-10-11T04:08:12.452Z,96.00
2018-10-11T04:10:42.048Z,96.10
2018-10-11T04:13:11.846Z,96.10
2018-10-11T04:15:41.509Z,96.10
2018-10-11T04:18:11.279Z,96.10
2018-10-11T04:20:40.882Z,96.20
2018-10-11T04:23:14.528Z,96.20
2018-10-11T04:25:44.143Z,96.10
2018-10-11T04:28:13.697Z,96.00
2018-10-11T04:30:43.297Z,96.20
2018-10-11T04:33:12.928Z,96.10
2018-10-11T04:35:42.557Z,96.10
2018-10-11T04:38:12.242Z,96.10
2018-10-11T04:40:42.559Z,96.10
2018-10-11T04:43:12.970Z,96.10
2018-10-11T04:45:43.716Z,96.10
2018-10-11T04:48:14.454Z,96.40
2018-10-11T04:50:45.980Z,96.30
2018-10-11T04:53:16.650Z,96.30
2018-10-11T04:59:04.663Z,96.10
2018-10-11T05:01:34.960Z,96.10
2018-10-11T05:04:05.019Z,96.20
2018-10-11T05:06:35.004Z,96.30
2018-10-11T05:09:04.998Z,96.30
2018-10-11T05:11:35.530Z,96.40
2018-10-11T05:14:05.301Z,96.30
2018-10-11T05:16:34.993Z,96.20
2018-10-11T05:19:05.839Z,96.30
2018-10-11T05:21:36.209Z,96.40
2018-10-11T05:24:06.381Z,96.30
2018-10-11T05:26:36.069Z,96.30
2018-10-11T05:29:06.346Z,96.30
2018-10-11T05:31:36.615Z,96.40
2018-10-11T05:34:07.070Z,96.60
2018-10-11T05:36:36.938Z,96.80
2018-10-11T05:39:08.140Z,96.90
2018-10-11T05:41:37.976Z,96.80
2018-10-11T05:44:08.528Z,97.00
2018-10-11T05:46:40.049Z,97.10
2018-10-11T05:49:10.324Z,97.00
2018-10-11T05:51:40.933Z,97.10
2018-10-11T05:54:11.422Z,96.80
2018-10-11T05:56:43.718Z,97.10
2018-10-11T05:59:14.262Z,96.90
2018-10-11T06:01:44.125Z,97.10
2018-10-11T06:04:14.417Z,96.80
2018-10-11T06:06:47.205Z,96.80
2018-10-11T06:09:17.327Z,96.80
2018-10-11T06:11:47.524Z,97.00
2018-10-11T06:14:18.125Z,96.80
2018-10-11T06:16:47.877Z,96.70
2018-10-11T06:19:17.896Z,97.00
2018-10-11T06:21:47.696Z,96.80
2018-10-11T06:24:17.297Z,97.10
2018-10-11T06:26:46.909Z,96.70
2018-10-11T06:29:17.105Z,96.60
2018-10-11T06:31:46.906Z,96.50
2018-10-11T06:34:17.329Z,96.30
2018-10-11T06:36:47.219Z,96.10
2018-10-11T06:39:17.525Z,96.00
2018-10-11T06:55:20.708Z,96.00
2018-10-11T06:57:50.339Z,96.00
2018-10-11T07:00:29.991Z,95.60
2018-10-11T07:02:59.693Z,95.40
2018-10-11T07:05:36.442Z,95.10
2018-10-11T07:08:06.056Z,95.40
2018-10-11T07:11:01.838Z,95.10
2018-10-11T07:17:01.542Z,94.80
2018-10-11T07:19:31.680Z,94.40
2018-10-11T07:22:01.374Z,94.40
2018-10-11T07:24:31.021Z,94.10
2018-10-11T07:27:01.949Z,94.00
2018-10-11T07:29:31.804Z,94.10
2018-10-11T07:32:02.795Z,93.70
2018-10-11T07:34:32.481Z,93.80
2018-10-11T07:37:03.002Z,93.80
2018-10-11T07:39:32.713Z,93.40
2018-10-11T07:42:02.436Z,93.10
2018-10-11T07:44:42.465Z,93.30
2018-10-11T07:47:13.083Z,93.10
2018-10-11T07:49:47.285Z,92.80
2018-10-11T07:52:16.835Z,93.00
2018-10-11T07:54:47.890Z,92.60
2018-10-11T07:57:20.145Z,92.40
2018-10-11T08:00:05.940Z,92.00
2018-10-11T08:02:41.746Z,92.00
2018-10-11T08:05:11.504Z,91.40
2018-10-11T08:07:41.230Z,91.30
2018-10-11T08:10:18.703Z,91.30
2018-10-11T08:12:55.252Z,91.50
2018-10-11T08:15:24.978Z,91.40
2018-10-11T08:17:55.334Z,91.70
2018-10-11T08:20:24.843Z,91.60
2018-10-11T08:22:57.485Z,91.60
2018-10-11T08:25:27.245Z,91.20
2018-10-11T08:28:03.597Z,91.40
2018-10-11T08:30:33.919Z,91.30
2018-10-11T08:33:12.846Z,91.40
2018-10-11T08:35:46.630Z,91.10
2018-10-11T08:38:17.193Z,91.20
2018-10-11T08:40:46.776Z,91.20
2018-10-11T08:43:16.479Z,91.50
2018-10-11T08:45:46.265Z,91.20
2018-10-11T08:48:15.986Z,91.00
2018-10-11T08:50:46.089Z,91.40
2018-10-11T08:53:15.821Z,91.00
2018-10-11T08:55:45.721Z,91.00
2018-10-11T08:58:15.399Z,91.10
2018-10-11T09:00:45.609Z,91.00
2018-10-11T09:03:15.359Z,90.90
2018-10-11T09:05:44.973Z,91.20
2018-10-11T09:08:15.000Z,91.30
2018-10-11T09:10:45.299Z,90.80
2018-10-11T09:13:16.000Z,90.80
2018-10-11T09:15:49.142Z,90.80
2018-10-11T09:18:22.295Z,90.50
2018-10-11T09:20:53.432Z,90.80
2018-10-11T09:23:23.576Z,90.50
2018-10-11T09:25:53.725Z,90.30
2018-10-11T09:28:23.557Z,90.70
2018-10-11T09:30:53.813Z,90.10
2018-10-11T09:34:11.016Z,90.30
2018-10-11T09:36:47.650Z,90.30
2018-10-11T09:39:17.906Z,90.60
2018-10-11T09:42:08.368Z,90.00
2018-10-11T09:44:44.571Z,90.20
2018-10-11T09:47:24.651Z,89.60
2018-10-11T09:49:54.253Z,89.20
2018-10-11T09:52:23.804Z,88.60
2018-10-11T09:54:54.158Z,89.20
2018-10-11T09:57:38.851Z,89.90
2018-10-11T10:00:15.433Z,88.80
2018-10-11T10:03:25.915Z,89.10
2018-10-11T10:06:04.251Z,88.90
2018-10-11T10:11:11.446Z,89.80
2018-10-11T10:13:41.156Z,88.90
2018-10-11T10:16:10.887Z,89.70
2018-10-11T10:18:40.581Z,89.10
2018-10-11T10:21:10.350Z,89.50
2018-10-11T10:39:46.197Z,88.00
2018-10-11T10:42:18.812Z,88.30
2018-10-11T10:44:48.443Z,88.80
2018-10-11T10:47:19.401Z,87.60
2018-10-11T10:49:49.155Z,88.50
2018-10-11T10:52:20.020Z,88.30
2018-10-11T10:54:49.677Z,88.90
2018-10-11T10:57:19.272Z,87.60
2018-10-11T10:59:49.501Z,87.60
2018-10-11T11:02:19.721Z,88.60
2018-10-11T11:04:56.299Z,87.80
2018-10-11T11:07:25.989Z,87.90
2018-10-11T11:10:07.074Z,87.00
2018-10-11T11:12:37.549Z,86.50
2018-10-11T11:15:08.028Z,86.90
2018-10-11T11:20:16.971Z,85.80
2018-10-11T11:29:22.772Z,85.50
2018-10-11T11:35:27.980Z,85.60
2018-10-11T11:37:57.677Z,85.60
2018-10-11T11:40:27.301Z,83.70
2018-10-11T11:42:56.900Z,83.80
2018-10-11T11:45:26.587Z,83.40
2018-10-11T11:47:56.235Z,82.90
2018-10-11T11:50:25.910Z,85.00
2018-10-11T11:52:55.570Z,82.80
2018-10-11T11:55:26.053Z,83.30
2018-10-11T11:57:56.371Z,84.00
2018-10-11T12:00:28.443Z,82.50
2018-10-11T12:03:00.291Z,81.80
2018-10-11T12:05:32.115Z,81.70
2018-10-11T12:08:04.532Z,82.10
2018-10-11T12:10:37.020Z,82.20
2018-10-11T12:13:18.152Z,81.50
2018-10-11T12:16:01.363Z,82.00
2018-10-11T12:18:40.997Z,82.00
2018-10-11T12:43:03.741Z,81.30
2018-10-11T13:02:22.757Z,80.00
2018-10-11T13:08:20.608Z,80.30
2018-10-11T13:10:50.269Z,80.40
2018-10-11T13:13:19.862Z,79.60
2018-10-11T13:15:49.581Z,80.50
2018-10-11T13:18:19.569Z,80.50
2018-10-11T13:20:49.309Z,80.10
2018-10-11T13:23:18.911Z,80.90
2018-10-11T13:25:48.530Z,80.70
2018-10-11T13:28:18.056Z,79.70
2018-10-11T13:30:47.565Z,78.70
2018-10-11T13:33:17.193Z,80.50
2018-10-11T13:35:46.773Z,80.40
2018-10-11T13:38:16.392Z,80.20
2018-10-11T13:40:46.090Z,81.10
2018-10-11T13:43:15.596Z,80.30
2018-10-11T13:45:45.305Z,81.40
2018-10-11T13:48:14.938Z,81.80
2018-10-11T13:50:44.505Z,82.00
2018-10-11T13:53:17.019Z,82.50
2018-10-11T13:55:46.943Z,82.90
2018-10-11T13:58:13.354Z,82.80
2018-10-11T14:00:43.102Z,83.00
2018-10-11T14:03:12.724Z,83.50
2018-10-11T14:05:42.364Z,84.20
2018-10-11T14:08:11.946Z,82.70
2018-10-11T14:10:41.789Z,85.00
2018-10-11T14:13:15.090Z,84.80
2018-10-11T14:15:40.831Z,84.90
2018-10-11T14:18:12.402Z,86.00
2018-10-11T14:20:40.190Z,86.20
2018-10-11T14:23:09.818Z,86.10
2018-10-11T14:25:39.450Z,86.00
2018-10-11T14:28:09.136Z,85.60
2018-10-11T14:30:38.740Z,87.10
2018-10-11T14:33:08.371Z,87.00
2018-10-11T14:35:38.365Z,88.40
2018-10-11T14:38:08.164Z,88.00
2018-10-11T14:40:37.855Z,88.40
2018-10-11T14:43:07.684Z,88.50
2018-10-11T14:45:37.231Z,87.90
2018-10-11T14:48:07.102Z,87.90
2018-10-11T14:50:36.717Z,89.10
2018-10-11T14:53:06.385Z,89.40
2018-10-11T14:55:36.174Z,89.00
2018-10-11T14:58:05.874Z,89.00
2018-10-11T15:00:35.517Z,89.60
2018-10-11T15:03:05.344Z,89.60
2018-10-11T15:05:35.843Z,89.30
2018-10-11T15:08:05.515Z,89.00
2018-10-11T15:10:35.159Z,89.70
2018-10-11T15:13:04.734Z,90.10
2018-10-11T15:15:34.330Z,90.60
2018-10-11T15:18:03.913Z,90.50
2018-10-11T15:20:33.584Z,90.80
2018-10-11T15:23:03.365Z,91.10
2018-10-11T15:25:33.009Z,91.20
2018-10-11T15:28:02.783Z,91.40
2018-10-11T15:30:32.334Z,90.60
2018-10-11T15:33:01.969Z,90.80
2018-10-11T15:35:31.545Z,90.70
2018-10-11T15:38:01.177Z,91.00
2018-10-11T15:40:30.766Z,90.70
2018-10-11T15:43:00.388Z,90.90
2018-10-11T15:45:30.101Z,90.80
2018-10-11T15:47:59.687Z,91.50
2018-10-11T15:50:29.325Z,91.60
2018-10-11T15:52:59.061Z,91.60
2018-10-11T15:55:28.756Z,91.90
2018-10-11T15:57:58.423Z,91.80
2018-10-11T16:00:28.169Z,92.00
2018-10-11T16:02:57.862Z,92.20
2018-10-11T16:05:27.544Z,92.20
2018-10-11T16:07:57.143Z,92.10
2018-10-11T16:10:26.734Z,92.40
2018-10-11T16:12:56.468Z,92.20
2018-10-11T16:15:26.142Z,92.20
2018-10-11T16:17:55.775Z,92.50
2018-10-11T16:20:25.389Z,92.10
2018-10-11T16:22:54.979Z,92.20
2018-10-11T16:25:24.755Z,91.90
2018-10-11T16:27:54.494Z,92.40
2018-10-11T16:30:24.828Z,92.50
2018-10-11T16:32:54.446Z,92.30
2018-10-11T16:35:24.033Z,92.20
2018-10-11T16:37:53.788Z,92.40
2018-10-11T16:40:23.601Z,93.20
2018-10-11T16:42:53.203Z,93.20
2018-10-11T16:45:23.104Z,92.90
2018-10-11T16:47:52.758Z,93.00
2018-10-11T16:50:22.684Z,93.00
2018-10-11T16:52:52.757Z,93.00
2018-10-11T16:55:22.601Z,93.00
2018-10-11T16:57:52.956Z,93.20
2018-10-11T17:00:23.213Z,93.40
2018-10-11T17:02:53.453Z,93.20
2018-10-11T17:05:23.916Z,93.20
2018-10-11T17:07:54.534Z,93.50
2018-10-11T17:10:25.037Z,93.60
2018-10-11T17:12:55.500Z,93.40
2018-10-11T17:15:26.029Z,93.50
2018-10-11T17:17:56.397Z,93.80
2018-10-11T17:20:26.735Z,94.20
2018-10-11T17:22:57.212Z,93.40
2018-10-11T17:25:27.648Z,93.50
2018-10-11T17:27:58.039Z,93.40
2018-10-11T17:30:28.517Z,93.60
2018-10-11T17:32:58.933Z,93.70
2018-10-11T17:35:29.396Z,94.00
2018-10-11T17:37:59.825Z,94.30
2018-10-11T17:40:30.148Z,94.20
2018-10-11T17:43:00.547Z,94.50
2018-10-11T17:45:30.936Z,94.80
2018-10-11T17:48:01.521Z,95.00
2018-10-11T17:50:32.061Z,95.20
2018-10-11T17:53:02.428Z,95.20
2018-10-11T17:55:32.809Z,95.10
2018-10-11T17:58:03.217Z,95.10
2018-10-11T18:00:33.734Z,95.00
2018-10-11T18:03:04.158Z,95.10
2018-10-11T18:05:35.566Z,95.30
2018-10-11T18:08:06.141Z,95.50
2018-10-11T18:10:36.624Z,95.50
2018-10-11T18:13:07.241Z,95.50
2018-10-11T18:15:37.669Z,95.30
2018-10-11T18:18:08.155Z,95.30
2018-10-11T18:20:38.561Z,95.30
2018-10-11T18:23:08.984Z,95.30
2018-10-11T18:25:39.315Z,95.40
2018-10-11T18:28:09.891Z,95.20
2018-10-11T18:30:40.209Z,95.30
2018-10-11T18:33:10.448Z,95.10
2018-10-11T18:35:40.578Z,95.20
2018-10-11T18:38:10.920Z,95.20
2018-10-11T18:40:41.250Z,95.30
2018-10-11T18:43:11.592Z,95.30
2018-10-11T18:45:41.944Z,95.40
2018-10-11T18:48:12.367Z,95.40
2018-10-11T18:50:42.752Z,95.30
2018-10-11T18:53:14.276Z,95.20
2018-10-11T18:55:45.975Z,95.40
2018-10-11T18:58:16.413Z,95.20
2018-10-11T19:00:46.955Z,95.40
2018-10-11T19:03:17.364Z,95.20
2018-10-11T19:05:47.755Z,95.20
2018-10-11T19:08:18.258Z,95.20
2018-10-11T19:10:48.676Z,95.10
2018-10-11T19:13:19.103Z,95.20
2018-10-11T19:15:49.425Z,95.50
2018-10-11T19:18:19.875Z,95.50
2018-10-11T19:20:50.480Z,95.80
2018-10-11T19:23:21.545Z,95.90
2018-10-11T19:25:51.903Z,95.60
2018-10-11T19:28:22.400Z,95.80
2018-10-11T19:30:52.845Z,96.10
2018-10-11T19:33:23.248Z,96.00
2018-10-11T19:35:53.632Z,96.00
2018-10-11T19:38:24.042Z,95.80
2018-10-11T19:40:54.403Z,95.90
2018-10-11T19:43:24.790Z,95.80
2018-10-11T19:45:55.238Z,95.80
2018-10-11T19:48:25.726Z,95.90
2018-10-11T19:50:56.100Z,95.80
2018-10-11T19:53:26.372Z,95.70
2018-10-11T19:55:56.768Z,95.70
2018-10-11T19:58:27.230Z,95.70
2018-10-11T20:00:57.526Z,95.70
2018-10-11T20:03:27.924Z,95.90
2018-10-11T20:05:58.244Z,96.00
2018-10-11T20:08:28.344Z,96.00
2018-10-11T20:10:59.551Z,95.90
2018-10-11T20:13:29.442Z,95.90
2018-10-11T20:15:59.455Z,96.10
2018-10-11T20:18:29.311Z,96.10
2018-10-11T20:20:59.098Z,96.00
2018-10-11T20:23:28.817Z,95.90
2018-10-11T20:25:58.593Z,95.70
2018-10-11T20:28:28.460Z,95.50
2018-10-11T20:30:58.252Z,95.50
2018-10-11T20:33:27.810Z,95.50
2018-10-11T20:35:57.616Z,95.40
2018-10-11T20:38:27.620Z,95.30
2018-10-11T20:40:57.428Z,95.20
2018-10-11T20:43:27.406Z,95.00
2018-10-11T20:45:56.991Z,94.90
2018-10-11T20:48:26.524Z,95.10
2018-10-11T20:50:56.145Z,95.20
2018-10-11T20:53:25.698Z,95.00
2018-10-11T20:55:55.380Z,95.00
2018-10-11T20:58:25.002Z,94.70
2018-10-11T21:00:54.626Z,94.50
2018-10-11T21:03:24.316Z,94.20
2018-10-11T21:05:54.014Z,94.10
2018-10-11T21:08:23.646Z,93.80
2018-10-11T21:10:53.210Z,93.80
2018-10-11T21:13:22.805Z,93.80
2018-10-11T21:15:52.439Z,93.80
2018-10-11T21:18:22.049Z,93.90
2018-10-11T21:20:51.657Z,93.90
2018-10-11T21:23:21.367Z,93.90
2018-10-11T21:25:50.930Z,94.00
2018-10-11T21:28:20.614Z,94.10
2018-10-11T21:30:50.309Z,94.10
2018-10-11T21:33:19.885Z,94.20
2018-10-11T21:35:49.426Z,94.20
2018-10-11T21:38:18.989Z,94.20
2018-10-11T21:40:48.655Z,94.20
2018-10-11T21:43:18.241Z,94.20
2018-10-11T21:45:47.876Z,94.20
2018-10-11T21:48:17.634Z,94.20
2018-10-11T21:50:47.214Z,94.30
2018-10-11T21:53:16.723Z,94.30
2018-10-11T21:55:46.307Z,94.40
2018-10-11T21:58:15.938Z,94.50
2018-10-11T22:00:50.790Z,94.50
2018-10-11T22:03:20.532Z,94.60
2018-10-11T22:05:50.181Z,94.50
2018-10-11T22:08:19.789Z,94.50
2018-10-11T22:10:49.557Z,94.70
2018-10-11T22:13:19.136Z,94.90
2018-10-11T22:15:48.642Z,94.60
2018-10-11T22:18:18.285Z,94.80
2018-10-11T22:20:47.880Z,94.70
2018-10-11T22:23:17.449Z,94.80
2018-10-11T22:25:47.097Z,94.90
2018-10-11T22:28:16.626Z,95.40
2018-10-11T22:30:46.186Z,95.60
2018-10-11T22:33:15.827Z,95.60
2018-10-11T22:35:45.506Z,95.70
2018-10-11T22:38:15.188Z,95.80
2018-10-11T22:40:44.805Z,95.80
2018-10-11T22:43:14.411Z,96.10
2018-10-11T22:45:44.073Z,96.00
2018-10-11T22:48:13.684Z,96.30
2018-10-11T22:50:43.412Z,96.70
2018-10-11T22:53:13.073Z,97.00
2018-10-11T22:55:42.645Z,97.10
2018-10-11T22:58:12.340Z,97.20
2018-10-11T23:00:41.995Z,97.30
2018-10-11T23:03:11.598Z,97.20
2018-10-11T23:05:41.247Z,97.30
2018-10-11T23:08:10.804Z,97.30
2018-10-11T23:10:40.366Z,97.20
2018-10-11T23:13:09.985Z,97.30
2018-10-11T23:15:39.536Z,97.10
2018-10-11T23:18:09.168Z,97.00
2018-10-11T23:20:38.760Z,97.00
2018-10-11T23:23:08.386Z,96.80
2018-10-11T23:25:37.988Z,96.90
2018-10-11T23:28:07.782Z,96.80
2018-10-11T23:30:37.516Z,96.70
2018-10-11T23:33:07.111Z,96.70
2018-10-11T23:35:36.702Z,96.90
2018-10-11T23:38:06.476Z,96.80
2018-10-11T23:40:36.031Z,96.80
2018-10-11T23:43:05.632Z,96.80
2018-10-11T23:45:35.255Z,96.70
2018-10-11T23:48:04.893Z,96.80
2018-10-11T23:50:34.567Z,96.70
2018-10-11T23:53:04.276Z,96.80
2018-10-11T23:55:33.852Z,96.70
2018-10-11T23:58:04.041Z,96.80
